createdAt,value
2018-09-11T00:42:54.876Z,21.9
2018-09-11T00:43:44.066Z,21.9
2018-09-11T00:44:35.311Z,21.9
2018-09-11T00:45:25.061Z,21.9
2018-09-11T00:46:15.410Z,21.9
2018-09-11T00:47:04.579Z,21.9
2018-09-11T00:47:56.128Z,21.9
2018-09-11T00:48:44.970Z,22
2018-09-11T00:49:34.861Z,22
2018-09-11T00:50:25.208Z,22
2018-09-11T00:51:15.233Z,22
2018-09-11T00:52:06.260Z,22
2018-09-11T00:52:55.710Z,22
2018-09-11T00:53:44.234Z,22.1
2018-09-11T00:54:35.456Z,22.1
2018-09-11T00:55:26.441Z,22.1
2018-09-11T00:56:15.865Z,22.1
2018-09-11T00:57:06.235Z,22.1
2018-09-11T00:57:56.131Z,22.1
2018-09-11T00:58:45.140Z,22.1
2018-09-11T00:59:35.248Z,22.1
2018-09-11T01:00:26.224Z,22.1
2018-09-11T01:01:14.864Z,22.1
2018-09-11T01:02:06.086Z,22.1
2018-09-11T01:02:55.447Z,22.1
2018-09-11T01:03:45.927Z,22.1
2018-09-11T01:04:35.156Z,22.1
2018-09-11T01:05:25.882Z,22.1
2018-09-11T01:06:16.350Z,22.1
2018-09-11T01:07:05.307Z,22.1
2018-09-11T01:07:56.699Z,22.1
2018-09-11T01:08:46.715Z,22.1
2018-09-11T01:09:36.612Z,22.1
2018-09-11T01:10:27.730Z,22.1
2018-09-11T01:11:16.442Z,22.1
2018-09-11T01:12:07.031Z,22.1
2018-09-11T01:12:56.191Z,22.1
2018-09-11T01:13:47.222Z,22.1
2018-09-11T01:14:36.912Z,22.1
2018-09-11T01:15:27.347Z,22.1
2018-09-11T01:16:14.167Z,22.1
2018-09-11T01:17:07.106Z,22.1
2018-09-11T01:17:56.621Z,22.1
2018-09-11T01:18:47.374Z,22.1
2018-09-11T01:19:37.609Z,22.1
2018-09-11T01:20:27.721Z,22.1
2018-09-11T01:21:16.968Z,22.1
2018-09-11T01:22:07.482Z,22
2018-09-11T01:22:57.284Z,22
2018-09-11T01:23:47.372Z,22
2018-09-11T01:24:38.259Z,22
2018-09-11T01:25:27.179Z,22
2018-09-11T01:26:17.794Z,22
2018-09-11T01:27:06.491Z,22
2018-09-11T01:27:57.664Z,22
2018-09-11T01:28:47.450Z,22
2018-09-11T01:29:38.113Z,22
2018-09-11T01:30:28.447Z,21.9
2018-09-11T01:31:18.478Z,21.9
2018-09-11T01:32:08.010Z,21.9
2018-09-11T01:32:58.300Z,21.9
2018-09-11T01:33:48.378Z,21.9
2018-09-11T01:34:39.014Z,21.9
2018-09-11T01:35:27.941Z,21.9
2018-09-11T01:36:18.008Z,21.9
2018-09-11T01:37:08.630Z,21.9
2018-09-11T01:37:58.431Z,21.9
2018-09-11T01:38:49.016Z,21.9
2018-09-11T01:39:38.788Z,21.9
2018-09-11T01:40:28.291Z,21.9
2018-09-11T01:41:17.788Z,21.9
2018-09-11T01:42:09.283Z,21.9
2018-09-11T01:42:58.793Z,21.9
2018-09-11T01:43:49.923Z,21.9
2018-09-11T01:44:40.047Z,21.9
2018-09-11T01:45:28.380Z,21.9
2018-09-11T01:46:18.225Z,21.9
2018-09-11T01:47:08.779Z,21.9
2018-09-11T01:47:58.880Z,21.9
2018-09-11T01:48:49.546Z,21.9
2018-09-11T01:49:39.820Z,21.9
2018-09-11T01:50:29.658Z,21.9
2018-09-11T01:51:19.426Z,21.9
2018-09-11T01:52:09.753Z,21.9
2018-09-11T01:52:59.550Z,21.9
2018-09-11T01:53:49.870Z,21.9
2018-09-11T01:54:39.612Z,21.9
2018-09-11T01:55:30.257Z,21.9
2018-09-11T01:56:19.806Z,21.9
2018-09-11T01:57:09.311Z,21.9
2018-09-11T01:57:59.617Z,21.9
2018-09-11T01:58:50.284Z,21.9
2018-09-11T01:59:40.257Z,21.9
2018-09-11T02:00:29.912Z,21.9
2018-09-11T02:01:19.822Z,21.8
2018-09-11T02:02:10.522Z,21.8
2018-09-11T02:03:00.297Z,21.9
2018-09-11T02:03:50.880Z,21.8
2018-09-11T02:04:40.725Z,21.8
2018-09-11T02:05:31.069Z,21.8
2018-09-11T02:06:20.464Z,21.8
2018-09-11T02:07:11.159Z,21.9
2018-09-11T02:08:00.053Z,21.8
2018-09-11T02:08:50.426Z,21.8
2018-09-11T02:09:39.930Z,21.8
2018-09-11T02:10:30.012Z,21.8
2018-09-11T02:11:21.741Z,21.8
2018-09-11T02:12:10.451Z,21.8
2018-09-11T02:13:01.034Z,21.8
2018-09-11T02:13:51.124Z,21.8
2018-09-11T02:14:40.599Z,21.8
2018-09-11T02:15:31.566Z,21.8
2018-09-11T02:16:19.926Z,21.8
2018-09-11T02:17:10.748Z,21.8
2018-09-11T02:18:01.363Z,21.8
2018-09-11T02:18:52.356Z,21.8
2018-09-11T02:19:41.577Z,21.8
2018-09-11T02:20:31.606Z,21.8
2018-09-11T02:21:22.186Z,21.8
2018-09-11T02:22:11.176Z,21.8
2018-09-11T02:23:02.044Z,21.8
2018-09-11T02:23:51.591Z,21.8
2018-09-11T02:24:41.874Z,21.8
2018-09-11T02:25:32.654Z,21.8
2018-09-11T02:26:22.253Z,21.8
2018-09-11T02:27:12.116Z,21.8
2018-09-11T02:28:01.548Z,21.8
2018-09-11T02:28:52.788Z,21.7
2018-09-11T02:29:42.493Z,21.8
2018-09-11T02:30:32.651Z,21.7
2018-09-11T02:31:22.678Z,21.8
2018-09-11T02:32:12.495Z,21.8
2018-09-11T02:33:02.255Z,21.7
2018-09-11T02:33:52.885Z,21.7
2018-09-11T02:34:42.353Z,21.7
2018-09-11T02:35:33.030Z,21.7
2018-09-11T02:36:23.292Z,21.7
2018-09-11T02:37:13.052Z,21.7
2018-09-11T02:38:02.940Z,21.7
2018-09-11T02:38:52.368Z,21.7
2018-09-11T02:39:43.347Z,21.7
2018-09-11T02:40:32.760Z,21.7
2018-09-11T02:41:22.953Z,21.7
2018-09-11T02:42:14.065Z,21.7
2018-09-11T02:43:03.316Z,21.7
2018-09-11T02:43:54.197Z,21.7
2018-09-11T02:44:42.857Z,21.7
2018-09-11T02:45:33.141Z,21.7
2018-09-11T02:46:23.274Z,21.7
2018-09-11T02:47:13.552Z,21.7
2018-09-11T02:48:03.959Z,21.7
2018-09-11T02:48:53.447Z,21.7
2018-09-11T02:49:43.794Z,21.7
2018-09-11T02:50:34.978Z,21.6
2018-09-11T02:51:22.819Z,21.7
2018-09-11T02:52:13.979Z,21.7
2018-09-11T02:53:04.090Z,21.7
2018-09-11T02:53:53.774Z,21.6
2018-09-11T02:54:44.259Z,21.6
2018-09-11T02:55:34.824Z,21.6
2018-09-11T02:56:24.566Z,21.6
2018-09-11T02:57:14.154Z,21.6
2018-09-11T02:58:04.148Z,21.6
2018-09-11T02:58:54.505Z,21.6
2018-09-11T02:59:45.106Z,21.6
2018-09-11T03:00:35.131Z,21.6
2018-09-11T03:01:25.725Z,21.6
2018-09-11T03:02:14.461Z,21.6
2018-09-11T03:03:04.741Z,21.6
2018-09-11T03:03:55.187Z,21.6
2018-09-11T03:04:44.728Z,21.6
2018-09-11T03:05:34.974Z,21.6
2018-09-11T03:06:25.553Z,21.6
2018-09-11T03:07:14.579Z,21.6
2018-09-11T03:08:05.660Z,21.6
2018-09-11T03:08:55.495Z,21.6
2018-09-11T03:09:45.814Z,21.6
2018-09-11T03:10:35.643Z,21.6
2018-09-11T03:11:25.745Z,21.6
2018-09-11T03:12:15.663Z,21.6
2018-09-11T03:13:05.219Z,21.6
2018-09-11T03:13:55.268Z,21.6
2018-09-11T03:14:45.940Z,21.6
2018-09-11T03:15:35.125Z,21.6
2018-09-11T03:16:26.055Z,21.6
2018-09-11T03:17:16.998Z,21.6
2018-09-11T03:18:06.244Z,21.5
2018-09-11T03:18:58.003Z,21.6
2018-09-11T03:19:45.414Z,21.6
2018-09-11T03:20:36.090Z,21.5
2018-09-11T03:21:25.909Z,21.6
2018-09-11T03:22:17.623Z,21.6
2018-09-11T03:23:06.912Z,21.5
2018-09-11T03:23:56.402Z,21.6
2018-09-11T03:24:45.833Z,21.5
2018-09-11T03:25:37.164Z,21.5
2018-09-11T03:26:25.944Z,21.5
2018-09-11T03:27:16.561Z,21.6
2018-09-11T03:28:06.614Z,21.6
2018-09-11T03:28:55.849Z,21.6
2018-09-11T03:29:46.749Z,21.6
2018-09-11T03:30:36.652Z,21.6
2018-09-11T03:31:27.291Z,21.6
2018-09-11T03:32:16.756Z,21.6
2018-09-11T03:33:07.046Z,21.5
2018-09-11T03:33:57.629Z,21.6
2018-09-11T03:34:47.427Z,21.5
2018-09-11T03:35:38.676Z,21.5
2018-09-11T03:36:28.136Z,21.5
2018-09-11T03:37:17.908Z,21.5
2018-09-11T03:38:07.761Z,21.5
2018-09-11T03:38:56.896Z,21.4
2018-09-11T03:39:47.211Z,21.5
2018-09-11T03:40:38.686Z,21.5
2018-09-11T03:41:27.634Z,21.5
2018-09-11T03:42:17.429Z,21.5
2018-09-11T03:43:07.423Z,21.5
2018-09-11T03:43:58.753Z,21.5
2018-09-11T03:44:48.227Z,21.5
2018-09-11T03:45:38.364Z,21.5
2018-09-11T03:46:28.057Z,21.5
2018-09-11T03:47:18.402Z,21.4
2018-09-11T03:48:08.745Z,21.4
2018-09-11T03:48:58.755Z,21.5
2018-09-11T03:49:48.253Z,21.4
2018-09-11T03:50:39.509Z,21.5
2018-09-11T03:51:28.749Z,21.4
2018-09-11T03:52:18.725Z,21.5
2018-09-11T03:53:08.473Z,21.4
2018-09-11T03:53:58.563Z,21.5
2018-09-11T03:54:48.642Z,21.4
2018-09-11T03:55:39.266Z,21.4
2018-09-11T03:56:29.025Z,21.4
2018-09-11T03:57:18.868Z,21.4
2018-09-11T03:58:09.206Z,21.4
2018-09-11T03:58:59.236Z,21.4
2018-09-11T03:59:49.645Z,21.4
2018-09-11T04:00:39.683Z,21.4
2018-09-11T04:01:28.585Z,21.4
2018-09-11T04:02:18.933Z,21.4
2018-09-11T04:03:09.255Z,21.4
2018-09-11T04:03:59.404Z,21.4
2018-09-11T04:04:49.693Z,21.4
2018-09-11T04:05:40.101Z,21.4
2018-09-11T04:06:30.061Z,21.4
2018-09-11T04:07:20.441Z,21.4
2018-09-11T04:08:09.958Z,21.4
2018-09-11T04:08:59.385Z,21.4
2018-09-11T04:09:50.133Z,21.4
2018-09-11T04:10:39.446Z,21.4
2018-09-11T04:11:30.111Z,21.4
2018-09-11T04:12:20.270Z,21.4
2018-09-11T04:13:10.415Z,21.4
2018-09-11T04:13:58.479Z,21.4
2018-09-11T04:14:49.958Z,21.4
2018-09-11T04:15:38.913Z,21.4
2018-09-11T04:16:29.295Z,21.4
2018-09-11T04:17:19.807Z,21.4
2018-09-11T04:18:10.164Z,21.4
2018-09-11T04:18:59.656Z,21.4
2018-09-11T04:19:50.497Z,21.4
2018-09-11T04:20:40.534Z,21.4
2018-09-11T04:21:31.157Z,21.4
2018-09-11T04:22:20.952Z,21.4
2018-09-11T04:23:11.072Z,21.4
2018-09-11T04:24:00.312Z,21.4
2018-09-11T04:24:50.656Z,21.4
2018-09-11T04:25:43.260Z,21.4
2018-09-11T04:26:30.464Z,21.4
2018-09-11T04:27:21.114Z,21.4
2018-09-11T04:28:11.412Z,21.4
2018-09-11T04:29:01.816Z,21.4
2018-09-11T04:29:50.945Z,21.4
2018-09-11T04:30:40.129Z,21.5
2018-09-11T04:31:32.394Z,21.5
2018-09-11T04:32:22.012Z,21.4
2018-09-11T04:33:10.361Z,21.4
2018-09-11T04:34:01.576Z,21.4
2018-09-11T04:34:51.904Z,21.4
2018-09-11T04:35:42.219Z,21.4
2018-09-11T04:36:33.932Z,21.4
2018-09-11T04:37:21.548Z,21.4
2018-09-11T04:38:12.107Z,21.4
2018-09-11T04:39:01.412Z,21.4
2018-09-11T04:39:51.478Z,21.4
2018-09-11T04:40:41.193Z,21.4
2018-09-11T04:41:32.459Z,21.4
2018-09-11T04:42:22.268Z,21.4
2018-09-11T04:43:13.583Z,21.4
2018-09-11T04:44:02.660Z,21.4
2018-09-11T04:44:52.086Z,21.4
2018-09-11T04:45:42.800Z,21.4
2018-09-11T04:46:33.600Z,21.4
2018-09-11T04:47:23.388Z,21.4
2018-09-11T04:48:12.585Z,21.4
2018-09-11T04:49:02.110Z,21.4
2018-09-11T04:49:52.735Z,21.4
2018-09-11T04:50:42.305Z,21.4
2018-09-11T04:51:32.918Z,21.4
2018-09-11T04:52:23.193Z,21.4
2018-09-11T04:53:12.688Z,21.4
2018-09-11T04:54:03.027Z,21.4
2018-09-11T05:11:40.187Z,21.2
2018-09-11T05:12:29.404Z,21.2
2018-09-11T05:13:20.642Z,21.3
2018-09-11T05:14:11.099Z,21.3
2018-09-11T05:15:00.745Z,21.3
2018-09-11T05:15:50.300Z,21.3
2018-09-11T05:16:41.279Z,21.3
2018-09-11T05:17:30.082Z,21.3
2018-09-11T05:18:21.018Z,21.3
2018-09-11T05:19:11.134Z,21.3
2018-09-11T05:20:01.442Z,21.3
2018-09-11T05:20:50.754Z,21.4
2018-09-11T05:21:40.764Z,21.4
2018-09-11T05:22:31.568Z,21.4
2018-09-11T05:23:21.843Z,21.4
2018-09-11T05:24:12.461Z,21.4
2018-09-11T05:25:02.523Z,21.4
2018-09-11T05:25:52.013Z,21.4
2018-09-11T05:26:42.111Z,21.4
2018-09-11T05:27:33.899Z,21.4
2018-09-11T05:28:21.661Z,21.4
2018-09-11T05:29:11.383Z,21.4
2018-09-11T05:30:01.797Z,21.4
2018-09-11T05:30:52.380Z,21.4
2018-09-11T05:31:43.558Z,21.4
2018-09-11T05:32:32.241Z,21.4
2018-09-11T05:33:22.608Z,21.5
2018-09-11T05:34:13.258Z,21.5
2018-09-11T05:35:02.273Z,21.5
2018-09-11T05:35:52.254Z,21.5
2018-09-11T05:36:41.741Z,21.5
2018-09-11T05:37:32.668Z,21.5
2018-09-11T05:38:22.417Z,21.5
2018-09-11T05:39:14.927Z,21.5
2018-09-11T05:40:03.701Z,21.5
2018-09-11T05:40:54.036Z,21.5
2018-09-11T05:41:43.215Z,21.5
2018-09-11T05:42:33.248Z,21.5
2018-09-11T05:43:23.876Z,21.5
2018-09-11T05:44:14.043Z,21.5
2018-09-11T05:45:03.456Z,21.5
2018-09-11T05:45:53.803Z,21.5
2018-09-11T05:46:42.470Z,21.6
2018-09-11T05:47:33.078Z,21.6
2018-09-11T05:48:23.706Z,21.6
2018-09-11T05:49:13.773Z,21.6
2018-09-11T05:50:04.163Z,21.6
2018-09-11T05:50:54.218Z,21.5
2018-09-11T05:51:44.830Z,21.5
2018-09-11T05:52:33.756Z,21.5
2018-09-11T05:53:23.810Z,21.5
2018-09-11T05:54:13.845Z,21.5
2018-09-11T05:55:04.154Z,21.5
2018-09-11T05:55:54.504Z,21.6
2018-09-11T05:56:43.225Z,21.6
2018-09-11T05:57:34.060Z,21.6
2018-09-11T05:58:25.019Z,21.6
2018-09-11T05:59:13.747Z,21.6
2018-09-11T06:00:05.134Z,21.6
2018-09-11T06:00:54.167Z,21.6
2018-09-11T06:01:44.482Z,21.6
2018-09-11T06:02:35.157Z,21.6
2018-09-11T06:03:24.550Z,21.6
2018-09-11T06:04:14.067Z,21.6
2018-09-11T06:05:04.452Z,21.6
2018-09-11T06:05:56.217Z,21.7
2018-09-11T06:06:44.807Z,21.8
2018-09-11T06:07:36.392Z,21.7
2018-09-11T06:08:24.714Z,21.8
2018-09-11T06:09:15.695Z,21.7
2018-09-11T06:10:05.234Z,21.8
2018-09-11T06:10:54.616Z,21.7
2018-09-11T06:11:45.804Z,21.8
2018-09-11T06:12:35.004Z,21.7
2018-09-11T06:13:26.109Z,21.8
2018-09-11T06:14:15.364Z,21.8
2018-09-11T06:15:05.696Z,21.7
2018-09-11T06:15:55.796Z,21.8
2018-09-11T06:16:46.095Z,21.8
2018-09-11T06:17:35.521Z,21.8
2018-09-11T06:18:25.181Z,21.8
2018-09-11T06:19:16.293Z,21.8
2018-09-11T06:20:06.473Z,21.8
2018-09-11T06:20:55.611Z,21.8
2018-09-11T06:21:46.825Z,21.8
2018-09-11T06:22:36.845Z,21.8
2018-09-11T06:23:25.826Z,21.8
2018-09-11T06:24:15.883Z,21.9
2018-09-11T06:25:06.481Z,21.9
2018-09-11T06:25:57.398Z,21.9
2018-09-11T06:26:46.062Z,21.9
2018-09-11T06:27:36.368Z,21.9
2018-09-11T06:28:26.681Z,22
2018-09-11T06:29:17.896Z,22
2018-09-11T06:30:06.875Z,22.1
2018-09-11T06:30:57.487Z,22.1
2018-09-11T06:31:47.230Z,22
2018-09-11T06:32:36.991Z,22.1
2018-09-11T06:33:26.795Z,22.1
2018-09-11T06:34:17.388Z,22.1
2018-09-11T06:35:05.852Z,22.1
2018-09-11T06:35:57.368Z,22.1
2018-09-11T06:36:46.553Z,22.1
2018-09-11T06:37:37.355Z,22.2
2018-09-11T06:38:26.600Z,22.3
2018-09-11T06:39:18.085Z,22.3
2018-09-11T06:40:07.880Z,22.3
2018-09-11T06:40:57.369Z,22.4
2018-09-11T06:41:47.972Z,22.4
2018-09-11T06:42:37.172Z,22.4
2018-09-11T06:43:28.171Z,22.4
2018-09-11T06:44:16.749Z,22.5
2018-09-11T06:45:07.951Z,22.5
2018-09-11T06:45:58.062Z,22.5
2018-09-11T06:46:48.287Z,22.6
2018-09-11T06:47:38.149Z,22.6
2018-09-11T06:48:28.167Z,22.6
2018-09-11T06:49:18.387Z,22.6
2018-09-11T06:50:08.031Z,22.6
2018-09-11T06:50:58.423Z,22.6
2018-09-11T06:51:48.557Z,22.6
2018-09-11T06:52:38.733Z,22.6
2018-09-11T06:53:27.951Z,22.6
2018-09-11T06:54:17.951Z,22.7
2018-09-11T06:55:08.257Z,22.7
2018-09-11T06:55:58.186Z,22.7
2018-09-11T06:56:48.567Z,22.7
2018-09-11T06:57:38.658Z,22.7
2018-09-11T06:58:29.236Z,22.8
2018-09-11T06:59:18.484Z,22.8
2018-09-11T07:00:09.109Z,22.8
2018-09-11T07:01:00.144Z,22.8
2018-09-11T07:01:50.055Z,22.8
2018-09-11T07:02:38.671Z,22.8
2018-09-11T07:03:28.840Z,22.8
2018-09-11T07:04:19.720Z,22.8
2018-09-11T07:05:09.798Z,22.8
2018-09-11T07:05:59.953Z,22.8
2018-09-11T07:06:49.916Z,22.9
2018-09-11T07:07:39.965Z,22.9
2018-09-11T07:08:30.856Z,22.9
2018-09-11T07:09:20.075Z,22.9
2018-09-11T07:10:09.451Z,22.9
2018-09-11T07:11:00.181Z,22.9
2018-09-11T07:11:50.560Z,22.9
2018-09-11T07:12:39.520Z,22.9
2018-09-11T07:13:30.415Z,22.9
2018-09-11T07:14:20.486Z,22.9
2018-09-11T07:15:09.330Z,22.9
2018-09-11T07:16:00.605Z,23
2018-09-11T07:16:50.187Z,23
2018-09-11T07:17:40.288Z,23
2018-09-11T07:18:29.937Z,23
2018-09-11T07:19:20.112Z,23
2018-09-11T07:20:17.919Z,23.1
2018-09-11T07:21:00.417Z,23.1
2018-09-11T07:21:50.727Z,23.1
2018-09-11T07:22:40.809Z,23.1
2018-09-11T07:23:30.339Z,23.1
2018-09-11T07:24:20.389Z,23.1
2018-09-11T07:25:09.699Z,23.1
2018-09-11T07:26:01.510Z,23.1
2018-09-11T07:26:50.587Z,23.1
2018-09-11T07:27:40.902Z,23.1
2018-09-11T07:28:30.953Z,23.1
2018-09-11T07:29:22.160Z,23.1
2018-09-11T07:30:10.537Z,23.1
2018-09-11T07:31:01.185Z,23.1
2018-09-11T07:31:51.330Z,23.2
2018-09-11T07:32:41.816Z,23.1
2018-09-11T07:33:31.972Z,23.2
2018-09-11T07:34:21.972Z,23.2
2018-09-11T07:35:12.392Z,23.2
2018-09-11T07:36:00.654Z,23.2
2018-09-11T07:36:51.617Z,23.2
2018-09-11T07:37:41.946Z,23.2
2018-09-11T07:38:32.691Z,23.3
2018-09-11T07:39:22.371Z,23.3
2018-09-11T07:40:12.804Z,23.3
2018-09-11T07:41:01.800Z,23.3
2018-09-11T07:41:52.703Z,23.3
2018-09-11T07:42:41.883Z,23.3
2018-09-11T07:43:32.106Z,23.3
2018-09-11T07:44:22.414Z,23.3
2018-09-11T07:45:11.956Z,23.3
2018-09-11T07:46:03.137Z,23.3
2018-09-11T07:46:51.868Z,23.3
2018-09-11T07:47:42.134Z,23.3
2018-09-11T07:48:32.626Z,23.3
2018-09-11T07:49:23.070Z,23.3
2018-09-11T07:50:13.223Z,23.3
2018-09-11T07:51:03.276Z,23.4
2018-09-11T07:51:52.495Z,23.3
2018-09-11T07:52:45.391Z,23.4
2018-09-11T07:53:32.708Z,23.4
2018-09-11T07:54:22.636Z,23.4
2018-09-11T07:55:13.278Z,23.4
2018-09-11T07:56:03.085Z,23.4
2018-09-11T07:56:53.865Z,23.4
2018-09-11T07:57:45.088Z,23.4
2018-09-11T07:58:33.830Z,23.4
2018-09-11T07:59:23.890Z,23.4
2018-09-11T08:00:13.186Z,23.4
2018-09-11T08:01:03.763Z,23.4
2018-09-11T08:01:53.527Z,23.4
2018-09-11T08:02:43.647Z,23.4
2018-09-11T08:03:33.680Z,23.4
2018-09-11T08:04:23.698Z,23.4
2018-09-11T08:05:14.374Z,23.4
2018-09-11T08:06:03.571Z,23.4
2018-09-11T08:06:53.647Z,23.4
2018-09-11T08:07:44.260Z,23.4
2018-09-11T08:08:33.765Z,23.4
2018-09-11T08:09:24.777Z,23.4
2018-09-11T08:10:14.726Z,23.4
2018-09-11T08:11:05.034Z,23.5
2018-09-11T08:11:54.888Z,23.5
2018-09-11T08:12:44.644Z,23.5
2018-09-11T08:13:34.231Z,23.5
2018-09-11T08:14:23.429Z,23.5
2018-09-11T08:15:15.106Z,23.5
2018-09-11T08:16:04.004Z,23.5
2018-09-11T08:16:54.950Z,23.5
2018-09-11T08:17:43.954Z,23.6
2018-09-11T08:18:35.126Z,23.6
2018-09-11T08:19:25.193Z,23.6
2018-09-11T08:20:14.705Z,23.6
2018-09-11T08:21:05.312Z,23.6
2018-09-11T08:21:55.048Z,23.6
2018-09-11T08:22:44.574Z,23.6
2018-09-11T08:23:35.764Z,23.6
2018-09-11T08:24:25.820Z,23.6
2018-09-11T08:25:15.919Z,23.6
2018-09-11T08:26:06.207Z,23.6
2018-09-11T08:26:55.131Z,23.6
2018-09-11T08:27:45.887Z,23.6
2018-09-11T08:28:35.021Z,23.6
2018-09-11T08:29:26.999Z,23.6
2018-09-11T08:30:15.086Z,23.6
2018-09-11T08:31:05.486Z,23.6
2018-09-11T08:31:55.802Z,23.7
2018-09-11T08:32:45.613Z,23.6
2018-09-11T08:33:35.946Z,23.7
2018-09-11T08:34:25.688Z,23.7
2018-09-11T08:35:16.909Z,23.7
2018-09-11T08:36:06.081Z,23.7
2018-09-11T08:36:55.880Z,23.7
2018-09-11T08:37:47.112Z,23.7
2018-09-11T08:38:36.621Z,23.7
2018-09-11T08:39:27.180Z,23.7
2018-09-11T08:40:16.218Z,23.7
2018-09-11T08:41:08.327Z,23.7
2018-09-11T08:41:57.416Z,23.7
2018-09-11T08:42:46.618Z,23.7
2018-09-11T08:43:37.072Z,23.7
2018-09-11T08:44:26.455Z,23.7
2018-09-11T08:45:17.110Z,23.8
2018-09-11T08:46:06.955Z,23.7
2018-09-11T08:46:57.590Z,23.8
2018-09-11T08:47:47.637Z,23.8
2018-09-11T08:48:37.158Z,23.8
2018-09-11T08:49:26.865Z,23.8
2018-09-11T08:50:17.211Z,23.8
2018-09-11T08:51:07.858Z,23.8
2018-09-11T08:51:57.334Z,23.8
2018-09-11T08:52:49.185Z,23.8
2018-09-11T08:53:37.952Z,23.8
2018-09-11T08:54:26.103Z,23.8
2018-09-11T08:55:18.195Z,23.8
2018-09-11T08:56:07.650Z,23.8
2018-09-11T08:56:58.271Z,23.8
2018-09-11T08:57:48.026Z,23.8
2018-09-11T08:58:39.494Z,23.8
2018-09-11T08:59:28.717Z,23.8
2018-09-11T09:00:17.372Z,23.8
2018-09-11T09:01:08.318Z,23.8
2018-09-11T09:01:58.150Z,23.8
2018-09-11T09:02:48.182Z,23.8
2018-09-11T09:03:38.229Z,23.8
2018-09-11T09:04:27.707Z,23.8
2018-09-11T09:05:18.602Z,23.8
2018-09-11T09:06:08.384Z,23.9
2018-09-11T09:06:58.028Z,23.8
2018-09-11T09:07:48.304Z,23.9
2018-09-11T09:08:39.229Z,23.9
2018-09-11T09:09:29.514Z,23.9
2018-09-11T09:26:18.920Z,23.8
2018-09-11T09:27:08.679Z,23.8
2018-09-11T09:27:57.677Z,23.8
2018-09-11T09:28:47.366Z,23.8
2018-09-11T09:29:38.114Z,23.8
2018-09-11T09:30:28.690Z,23.8
2018-09-11T09:31:18.993Z,23.8
2018-09-11T09:32:08.265Z,23.8
2018-09-11T09:32:58.183Z,23.8
2018-09-11T09:33:48.677Z,23.8
2018-09-11T09:34:39.020Z,23.9
2018-09-11T09:35:29.111Z,23.9
2018-09-11T09:36:19.164Z,23.9
2018-09-11T09:37:09.640Z,23.9
2018-09-11T09:37:58.972Z,23.9
2018-09-11T09:38:48.459Z,23.9
2018-09-11T09:39:38.529Z,23.9
2018-09-11T09:40:29.449Z,23.9
2018-09-11T09:41:20.317Z,23.9
2018-09-11T09:42:09.554Z,23.9
2018-09-11T09:42:59.641Z,23.9
2018-09-11T09:43:49.691Z,23.9
2018-09-11T09:44:39.510Z,23.9
2018-09-11T09:45:29.030Z,24
2018-09-11T09:46:20.394Z,24
2018-09-11T09:47:09.803Z,24
2018-09-11T09:47:59.194Z,24
2018-09-11T09:48:48.899Z,24
2018-09-11T09:49:39.091Z,24
2018-09-11T09:50:29.971Z,24
2018-09-11T09:51:19.719Z,24
2018-09-11T09:52:10.517Z,24.1
2018-09-11T09:52:59.873Z,24
2018-09-11T09:53:50.236Z,24.1
2018-09-11T09:54:39.121Z,24
2018-09-11T09:55:29.838Z,24
2018-09-11T09:56:20.898Z,24
2018-09-11T09:57:09.745Z,24
2018-09-11T09:58:00.556Z,24
2018-09-11T09:58:50.278Z,24
2018-09-11T09:59:40.646Z,24.1
2018-09-11T10:00:31.262Z,24.1
2018-09-11T10:01:21.066Z,24.1
2018-09-11T10:02:11.385Z,24
2018-09-11T10:03:00.877Z,24.1
2018-09-11T10:03:51.018Z,24.1
2018-09-11T10:04:41.806Z,24.1
2018-09-11T10:05:31.093Z,24.1
2018-09-11T10:06:20.610Z,24.1
2018-09-11T10:07:11.782Z,24.1
2018-09-11T10:08:01.281Z,24.1
2018-09-11T10:08:51.917Z,24.1
2018-09-11T10:09:41.414Z,24.1
2018-09-11T10:10:31.480Z,24.1
2018-09-11T10:11:20.962Z,24.1
2018-09-11T10:12:11.951Z,24.1
2018-09-11T10:13:01.426Z,24.1
2018-09-11T10:13:51.394Z,24.1
2018-09-11T10:14:41.030Z,24.1
2018-09-11T10:15:31.337Z,24.1
2018-09-11T10:16:21.291Z,24.1
2018-09-11T10:17:11.411Z,24.1
2018-09-11T10:18:02.067Z,24.1
2018-09-11T10:18:51.791Z,24.1
2018-09-11T10:19:42.247Z,24.1
2018-09-11T10:20:31.341Z,24.1
2018-09-11T10:21:22.617Z,24.1
2018-09-11T10:22:12.108Z,24
2018-09-11T10:23:02.777Z,24
2018-09-11T10:23:52.381Z,24
2018-09-11T10:24:43.308Z,24.1
2018-09-11T10:25:32.893Z,24.1
2018-09-11T10:26:22.993Z,24.1
2018-09-11T10:27:13.090Z,24.1
2018-09-11T10:28:02.678Z,24.1
2018-09-11T10:28:53.295Z,24.1
2018-09-11T10:29:42.652Z,24.1
2018-09-11T10:30:32.413Z,24.1
2018-09-11T10:31:23.773Z,24.1
2018-09-11T10:32:12.728Z,24.1
2018-09-11T10:33:03.105Z,24.1
2018-09-11T10:33:53.600Z,24.1
2018-09-11T10:34:41.948Z,24.1
2018-09-11T10:35:33.172Z,24.1
2018-09-11T10:36:22.860Z,24.1
2018-09-11T10:37:13.240Z,24.1
2018-09-11T10:38:04.503Z,24.1
2018-09-11T10:38:53.858Z,24.1
2018-09-11T10:39:43.128Z,24.1
2018-09-11T10:40:32.885Z,24.1
2018-09-11T10:41:23.525Z,24.1
2018-09-11T10:42:13.244Z,24.1
2018-09-11T10:43:04.505Z,24.2
2018-09-11T10:43:53.705Z,24.1
2018-09-11T10:44:43.810Z,24.2
2018-09-11T10:45:33.555Z,24.2
2018-09-11T10:46:24.205Z,24.1
2018-09-11T10:47:13.896Z,24.1
2018-09-11T10:48:04.692Z,24.2
2018-09-11T10:48:56.073Z,24.1
2018-09-11T10:49:43.903Z,24.1
2018-09-11T10:50:34.569Z,24.1
2018-09-11T10:51:24.556Z,24.1
2018-09-11T10:52:13.847Z,24.1
2018-09-11T10:53:04.792Z,24.1
2018-09-11T10:53:54.839Z,24.1
2018-09-11T10:54:45.112Z,24.1
2018-09-11T10:55:34.912Z,24.2
2018-09-11T10:56:24.944Z,24.2
2018-09-11T10:57:15.626Z,24.1
2018-09-11T10:58:03.952Z,24.2
2018-09-11T10:58:55.396Z,24.2
2018-09-11T10:59:45.197Z,24.2
2018-09-11T11:00:35.315Z,24.2
2018-09-11T11:01:24.346Z,24.2
2018-09-11T11:02:14.640Z,24.2
2018-09-11T11:03:05.454Z,24.2
2018-09-11T11:03:55.490Z,24.2
2018-09-11T11:04:45.284Z,24.2
2018-09-11T11:05:34.801Z,24.2
2018-09-11T11:06:25.439Z,24.3
2018-09-11T11:07:16.420Z,24.2
2018-09-11T11:08:05.549Z,24.3
2018-09-11T11:08:56.004Z,24.3
2018-09-11T11:09:46.254Z,24.3
2018-09-11T11:10:36.309Z,24.3
2018-09-11T11:11:24.961Z,24.2
2018-09-11T11:12:16.459Z,24.3
2018-09-11T11:13:06.282Z,24.3
2018-09-11T11:13:55.524Z,24.3
2018-09-11T11:14:45.488Z,24.3
2018-09-11T11:15:35.369Z,24.3
2018-09-11T11:16:25.713Z,24.3
2018-09-11T11:17:17.251Z,24.3
2018-09-11T11:18:06.979Z,24.3
2018-09-11T11:18:56.220Z,24.3
2018-09-11T11:19:47.086Z,24.3
2018-09-11T11:20:37.068Z,24.3
2018-09-11T11:21:26.583Z,24.3
2018-09-11T11:22:16.448Z,24.3
2018-09-11T11:23:06.230Z,24.3
2018-09-11T11:23:56.423Z,24.3
2018-09-11T11:24:46.770Z,24.3
2018-09-11T11:25:37.725Z,24.3
2018-09-11T11:26:26.363Z,24.3
2018-09-11T11:27:17.674Z,24.3
2018-09-11T11:28:07.354Z,24.3
2018-09-11T11:28:57.163Z,24.3
2018-09-11T11:29:47.777Z,24.3
2018-09-11T11:30:37.340Z,24.3
2018-09-11T11:31:27.690Z,24.3
2018-09-11T11:32:17.900Z,24.3
2018-09-11T11:33:07.462Z,24.3
2018-09-11T11:33:57.842Z,24.3
2018-09-11T11:34:48.129Z,24.3
2018-09-11T11:35:38.251Z,24.3
2018-09-11T11:36:30.874Z,24.3
2018-09-11T11:37:21.567Z,24.3
2018-09-11T11:38:07.885Z,24.3
2018-09-11T11:38:57.434Z,24.3
2018-09-11T11:39:48.637Z,24.3
2018-09-11T11:40:38.378Z,24.3
2018-09-11T11:41:28.382Z,24.3
2018-09-11T11:42:19.011Z,24.3
2018-09-11T11:43:08.510Z,24.3
2018-09-11T11:43:58.841Z,24.3
2018-09-11T11:44:47.741Z,24.3
2018-09-11T11:45:39.292Z,24.3
2018-09-11T11:46:28.789Z,24.4
2018-09-11T11:47:19.096Z,24.3
2018-09-11T11:48:09.366Z,24.3
2018-09-11T11:48:59.066Z,24.3
2018-09-11T11:49:50.382Z,24.3
2018-09-11T11:50:38.521Z,24.3
2018-09-11T11:51:28.297Z,24.3
2018-09-11T11:52:18.033Z,24.3
2018-09-11T11:53:09.075Z,24.3
2018-09-11T11:53:59.113Z,24.3
2018-09-11T11:54:49.490Z,24.3
2018-09-11T11:55:40.787Z,24.3
2018-09-11T11:56:28.493Z,24.3
2018-09-11T11:57:19.603Z,24.3
2018-09-11T11:58:08.308Z,24.4
2018-09-11T11:58:59.740Z,24.3
2018-09-11T11:59:48.145Z,24.3
2018-09-11T12:00:40.148Z,24.3
2018-09-11T12:01:30.627Z,24.3
2018-09-11T12:02:20.265Z,24.3
2018-09-11T12:03:10.330Z,24.3
2018-09-11T12:03:59.606Z,24.3
2018-09-11T12:04:49.598Z,24.3
2018-09-11T12:05:39.905Z,24.3
2018-09-11T12:06:30.580Z,24.3
2018-09-11T12:07:19.215Z,24.3
2018-09-11T12:08:09.880Z,24.4
2018-09-11T12:09:00.288Z,24.4
2018-09-11T12:09:50.281Z,24.3
2018-09-11T12:10:40.555Z,24.4
2018-09-11T12:11:30.413Z,24.4
2018-09-11T12:12:20.449Z,24.4
2018-09-11T12:13:10.844Z,24.4
2018-09-11T12:14:01.414Z,24.4
2018-09-11T12:14:49.861Z,24.4
2018-09-11T12:15:40.044Z,24.4
2018-09-11T12:16:31.313Z,24.4
2018-09-11T12:17:20.109Z,24.4
2018-09-11T12:18:09.762Z,24.4
2018-09-11T12:19:00.154Z,24.4
2018-09-11T12:19:50.791Z,24.4
2018-09-11T12:20:41.106Z,24.4
2018-09-11T12:21:31.807Z,24.4
2018-09-11T12:22:22.069Z,24.4
2018-09-11T12:23:11.900Z,24.4
2018-09-11T12:24:01.641Z,24.4